Time;durP1;ratioP1;P1;durP2;ratioP2;P2;SDS_P1;SDS_P2;PMS_P1;PMS_P2;Temp;Humidity;BMP_temperature;BMP_pressure;BME280_temperature;BME280_humidity;BME280_pressure;Samples;Min_cycle;Max_cycle;Signal;HPM_P1;HPM_P2
2023/09/30 00:01:22;;;;;;;3.05;1.65;;;14.70;76.90;;;;;;5065263;28;20020;-69
2023/09/30 00:03:48;;;;;;;1.13;0.90;;;14.70;76.90;;;;;;5069416;28;20097;-70
2023/09/30 00:06:13;;;;;;;2.13;1.13;;;14.70;76.90;;;;;;5061218;28;20475;-69
2023/09/30 00:08:41;;;;;;;1.52;0.77;;;14.70;76.80;;;;;;5064136;28;20086;-69
2023/09/30 00:11:07;;;;;;;2.03;1.15;;;14.70;76.80;;;;;;5068347;28;20039;-69
2023/09/30 00:13:33;;;;;;;1.90;1.23;;;14.70;77.00;;;;;;5065438;28;20391;-69
2023/09/30 00:15:58;;;;;;;11.07;2.03;;;14.70;77.10;;;;;;5068660;28;20074;-68
2023/09/30 00:18:24;;;;;;;2.90;1.50;;;14.70;77.20;;;;;;5067986;28;20063;-70
2023/09/30 00:20:50;;;;;;;3.80;1.52;;;14.70;77.30;;;;;;5049855;28;20417;-69
2023/09/30 00:23:16;;;;;;;3.13;1.42;;;14.70;77.30;;;;;;5044717;28;20052;-69
2023/09/30 00:25:42;;;;;;;7.05;2.05;;;14.70;77.50;;;;;;5066656;28;20063;-69
2023/09/30 00:28:08;;;;;;;2.53;1.15;;;14.70;77.60;;;;;;5064544;28;20159;-68
2023/09/30 00:30:33;;;;;;;1.83;1.27;;;14.70;77.70;;;;;;5069145;28;20024;-69
2023/09/30 00:32:59;;;;;;;4.43;1.35;;;14.70;77.70;;;;;;5068704;28;20506;-69
2023/09/30 00:35:25;;;;;;;3.58;1.60;;;14.70;77.70;;;;;;5067026;28;20388;-68
2023/09/30 00:37:51;;;;;;;4.22;1.83;;;14.70;77.80;;;;;;5062091;28;20021;-69
2023/09/30 00:40:17;;;;;;;3.47;0.82;;;14.70;77.60;;;;;;5053177;28;20036;-68
2023/09/30 00:42:42;;;;;;;1.60;1.42;;;14.70;77.60;;;;;;5064375;28;20479;-69
2023/09/30 00:45:09;;;;;;;4.45;2.28;;;14.70;77.60;;;;;;5066243;28;20016;-68
2023/09/30 00:47:36;;;;;;;2.55;1.05;;;14.70;77.60;;;;;;5068607;28;20040;-68
2023/09/30 00:50:04;;;;;;;1.42;1.00;;;14.70;77.80;;;;;;5048311;28;20103;-69
2023/09/30 00:52:33;;;;;;;1.95;1.33;;;14.60;77.70;;;;;;5068661;28;20480;-70
2023/09/30 00:54:59;;;;;;;3.45;1.75;;;14.60;77.70;;;;;;5066851;28;20106;-69
2023/09/30 00:57:25;;;;;;;2.60;1.50;;;14.60;77.80;;;;;;5066784;28;20025;-70
2023/09/30 00:59:52;;;;;;;5.35;1.58;;;14.60;77.80;;;;;;5068099;28;20035;-69
2023/09/30 01:02:22;;;;;;;1.17;0.80;;;14.60;77.80;;;;;;5064011;28;20143;-69
2023/09/30 01:04:48;;;;;;;3.17;1.40;;;14.60;77.70;;;;;;5066425;28;20021;-69
2023/09/30 01:07:14;;;;;;;2.58;1.33;;;14.50;77.70;;;;;;5069019;28;20052;-69
2023/09/30 01:09:40;;;;;;;1.95;1.15;;;14.50;77.70;;;;;;5064039;28;20033;-69
2023/09/30 01:12:07;;;;;;;1.60;0.90;;;14.60;77.80;;;;;;5067216;28;20395;-69
2023/09/30 01:14:42;;;;;;;2.05;1.13;;;14.50;77.80;;;;;;5049155;28;20418;-69
2023/09/30 01:17:15;;;;;;;2.15;1.08;;;14.50;77.80;;;;;;5061933;28;20471;-69
2023/09/30 01:19:42;;;;;;;2.83;1.33;;;14.50;77.80;;;;;;5068244;28;20024;-69
2023/09/30 01:22:09;;;;;;;1.60;1.30;;;14.40;77.80;;;;;;5062978;28;20032;-69
2023/09/30 01:24:42;;;;;;;3.22;1.73;;;14.40;77.90;;;;;;5067585;28;20033;-69
2023/09/30 01:27:08;;;;;;;1.80;1.30;;;14.40;77.80;;;;;;5064893;28;20033;-69
2023/09/30 01:29:34;;;;;;;2.00;1.30;;;14.40;77.90;;;;;;5049916;28;20032;-69
2023/09/30 01:32:01;;;;;;;4.07;1.58;;;14.40;77.90;;;;;;5064541;28;20024;-69
2023/09/30 01:34:27;;;;;;;4.82;1.88;;;14.30;77.90;;;;;;5063120;28;20024;-68
2023/09/30 01:36:53;;;;;;;2.38;1.58;;;14.30;77.90;;;;;;5046823;28;20032;-69
2023/09/30 01:39:19;;;;;;;3.88;1.73;;;14.20;78.00;;;;;;5049456;28;20025;-69
2023/09/30 01:41:45;;;;;;;2.72;1.02;;;14.20;78.00;;;;;;5048871;28;20506;-69
2023/09/30 01:44:10;;;;;;;2.22;1.55;;;14.20;78.00;;;;;;5033107;28;20078;-69
2023/09/30 01:46:36;;;;;;;2.45;1.23;;;14.20;77.90;;;;;;5067396;28;20671;-69
2023/09/30 01:49:03;;;;;;;2.40;1.50;;;14.20;77.70;;;;;;5049865;28;20040;-69
2023/09/30 01:51:29;;;;;;;2.25;0.98;;;14.20;77.80;;;;;;5063914;28;20048;-69
2023/09/30 01:53:55;;;;;;;1.90;1.55;;;14.20;77.90;;;;;;5053001;28;20028;-68
2023/09/30 01:56:21;;;;;;;5.30;1.50;;;14.20;77.80;;;;;;5055541;28;20037;-69
2023/09/30 01:58:47;;;;;;;2.78;1.33;;;14.10;77.80;;;;;;5068267;28;20024;-69
2023/09/30 02:01:12;;;;;;;4.40;1.70;;;14.10;77.80;;;;;;5039829;28;20116;-68
2023/09/30 02:03:38;;;;;;;1.63;1.33;;;14.10;77.90;;;;;;5070465;28;20111;-69
2023/09/30 02:06:04;;;;;;;3.30;1.38;;;14.10;77.90;;;;;;5061065;28;20395;-68
2023/09/30 02:08:30;;;;;;;1.40;1.23;;;14.10;77.90;;;;;;5055185;28;20076;-70
2023/09/30 02:10:56;;;;;;;1.38;1.13;;;14.00;77.90;;;;;;5061784;28;20041;-69
2023/09/30 02:13:22;;;;;;;3.67;1.65;;;14.00;77.90;;;;;;5069611;28;20517;-69
2023/09/30 02:15:48;;;;;;;4.63;2.05;;;14.00;78.10;;;;;;5049087;28;20031;-69
2023/09/30 02:18:14;;;;;;;5.88;1.63;;;14.00;78.00;;;;;;5061532;28;20075;-69
2023/09/30 02:20:40;;;;;;;4.28;1.33;;;14.00;78.10;;;;;;5035161;28;21640;-69
2023/09/30 02:23:13;;;;;;;4.13;1.50;;;14.00;78.10;;;;;;5062186;28;20074;-69
2023/09/30 02:25:39;;;;;;;6.20;2.15;;;14.00;78.00;;;;;;5066483;28;20029;-69
2023/09/30 02:28:08;;;;;;;5.57;1.77;;;13.90;78.00;;;;;;5062100;28;20039;-69
2023/09/30 02:30:34;;;;;;;2.13;1.35;;;14.00;78.20;;;;;;5069056;28;20127;-69
2023/09/30 02:33:00;;;;;;;3.67;1.45;;;14.00;78.10;;;;;;5071334;28;20103;-69
2023/09/30 02:35:26;;;;;;;2.83;1.25;;;14.00;78.00;;;;;;5069504;28;20036;-69
2023/09/30 02:37:52;;;;;;;2.08;1.08;;;14.00;78.00;;;;;;5066724;28;20071;-69
2023/09/30 02:40:19;;;;;;;2.65;1.10;;;14.00;78.00;;;;;;5068380;28;20120;-69
2023/09/30 02:42:45;;;;;;;2.85;1.58;;;14.00;78.10;;;;;;5042208;28;20033;-69
2023/09/30 02:45:12;;;;;;;1.70;1.52;;;14.00;78.10;;;;;;5069800;28;20032;-69
2023/09/30 02:47:39;;;;;;;2.30;1.20;;;14.00;78.10;;;;;;5063692;28;20544;-69
2023/09/30 02:50:16;;;;;;;2.95;1.50;;;14.00;78.10;;;;;;5051654;28;20024;-69
2023/09/30 02:52:41;;;;;;;3.00;1.20;;;14.00;78.20;;;;;;5066472;28;20527;-69
2023/09/30 02:55:11;;;;;;;4.18;1.70;;;14.00;78.30;;;;;;5052858;28;20036;-69
2023/09/30 02:57:38;;;;;;;3.78;2.22;;;14.00;78.50;;;;;;5037134;28;20029;-69
2023/09/30 03:00:23;;;;;;;3.17;2.00;;;14.00;78.50;;;;;;5068197;28;20408;-69
2023/09/30 03:02:55;;;;;;;5.03;1.90;;;14.00;78.50;;;;;;5066180;28;20032;-69
2023/09/30 03:05:23;;;;;;;2.50;1.23;;;14.10;78.60;;;;;;5068795;28;20483;-69
2023/09/30 03:07:50;;;;;;;3.47;1.23;;;14.10;78.50;;;;;;5049976;28;20039;-69
2023/09/30 03:10:26;;;;;;;2.13;1.85;;;14.10;78.50;;;;;;5070584;28;20101;-69
2023/09/30 03:12:56;;;;;;;3.22;1.25;;;14.10;78.60;;;;;;5068602;28;20078;-69
2023/09/30 03:15:23;;;;;;;1.58;1.27;;;14.10;78.80;;;;;;5066915;28;20485;-69
2023/09/30 03:17:49;;;;;;;1.90;1.00;;;14.10;78.70;;;;;;5070028;28;20024;-69
2023/09/30 03:20:19;;;;;;;4.10;1.63;;;14.10;78.80;;;;;;5069442;28;20028;-69
2023/09/30 03:22:47;;;;;;;4.57;2.33;;;14.20;78.90;;;;;;5069140;28;20032;-69
2023/09/30 03:25:16;;;;;;;5.20;2.25;;;14.20;78.80;;;;;;5062869;28;20082;-68
2023/09/30 03:27:41;;;;;;;3.30;1.60;;;14.20;79.00;;;;;;5068099;28;20318;-69
2023/09/30 03:30:08;;;;;;;2.67;1.67;;;14.20;78.90;;;;;;5049557;28;20047;-69
2023/09/30 03:32:36;;;;;;;3.63;1.98;;;14.20;78.80;;;;;;5050752;28;20139;-69
2023/09/30 03:35:02;;;;;;;2.88;1.85;;;14.20;78.90;;;;;;5064290;28;20467;-69
2023/09/30 03:37:28;;;;;;;2.72;1.83;;;14.20;79.10;;;;;;5046308;28;20028;-68
2023/09/30 03:39:57;;;;;;;2.45;1.50;;;14.20;79.10;;;;;;5067217;28;20043;-68
2023/09/30 03:42:23;;;;;;;2.42;1.40;;;14.20;79.10;;;;;;5066312;28;20055;-68
2023/09/30 03:44:49;;;;;;;5.35;2.30;;;14.20;79.10;;;;;;5068544;28;20036;-68
2023/09/30 03:47:16;;;;;;;7.78;2.10;;;14.20;79.10;;;;;;5062862;28;20066;-69
2023/09/30 03:49:42;;;;;;;3.08;1.70;;;14.20;79.10;;;;;;5049666;28;20079;-68
2023/09/30 03:52:09;;;;;;;5.50;1.77;;;14.20;79.80;;;;;;5066009;28;20123;-69
2023/09/30 03:54:35;;;;;;;3.80;1.42;;;14.20;79.30;;;;;;5068623;28;20043;-68
2023/09/30 03:57:01;;;;;;;2.90;1.63;;;14.20;79.40;;;;;;5040941;28;20499;-69
2023/09/30 03:59:27;;;;;;;2.95;1.50;;;14.20;79.30;;;;;;5030094;28;20123;-68
2023/09/30 04:01:58;;;;;;;2.28;1.48;;;14.20;79.30;;;;;;5047197;28;20115;-68
2023/09/30 04:04:25;;;;;;;2.60;1.33;;;14.20;79.30;;;;;;5068704;28;20040;-69
2023/09/30 04:06:51;;;;;;;2.85;1.65;;;14.20;79.40;;;;;;5050775;28;20025;-68
2023/09/30 04:09:17;;;;;;;3.58;1.48;;;14.20;79.40;;;;;;5069147;28;20375;-68
2023/09/30 04:11:43;;;;;;;2.75;1.55;;;14.10;79.50;;;;;;5050432;28;20040;-69
2023/09/30 04:14:09;;;;;;;3.67;1.63;;;14.10;79.50;;;;;;5062319;28;20075;-69
2023/09/30 04:16:37;;;;;;;2.50;1.52;;;14.10;79.60;;;;;;5062845;28;20029;-69
2023/09/30 04:19:03;;;;;;;2.13;1.50;;;14.10;79.50;;;;;;5068023;28;20131;-68
2023/09/30 04:21:33;;;;;;;3.33;1.75;;;14.10;79.60;;;;;;5057733;28;20487;-69
2023/09/30 04:23:59;;;;;;;2.08;1.88;;;14.20;79.70;;;;;;5062354;28;20032;-69
2023/09/30 04:26:25;;;;;;;4.05;1.65;;;14.20;79.70;;;;;;5062891;28;20036;-68
2023/09/30 04:28:52;;;;;;;2.83;1.30;;;14.20;79.70;;;;;;5067559;28;20451;-68
2023/09/30 04:31:19;;;;;;;2.63;1.92;;;14.20;79.70;;;;;;5069468;28;20029;-68
2023/09/30 04:33:45;;;;;;;3.75;1.98;;;14.20;79.70;;;;;;5050602;28;20105;-69
2023/09/30 04:36:11;;;;;;;11.07;2.33;;;14.20;79.80;;;;;;5063388;28;20381;-69
2023/09/30 04:38:39;;;;;;;4.85;2.08;;;14.10;79.80;;;;;;5066855;28;20269;-68
2023/09/30 04:41:07;;;;;;;5.07;1.83;;;14.20;79.90;;;;;;5063519;28;20461;-69
2023/09/30 04:43:33;;;;;;;4.00;2.55;;;14.20;79.90;;;;;;5067824;28;20391;-68
2023/09/30 04:45:59;;;;;;;2.88;1.80;;;14.10;79.90;;;;;;5050572;28;20024;-69
2023/09/30 04:48:25;;;;;;;3.75;2.30;;;14.10;80.00;;;;;;5066385;28;20055;-69
2023/09/30 04:50:51;;;;;;;2.25;1.50;;;14.10;79.90;;;;;;5050856;28;20028;-68
2023/09/30 04:53:17;;;;;;;2.78;1.77;;;14.20;80.00;;;;;;5050854;28;20039;-68
2023/09/30 04:55:44;;;;;;;4.93;1.75;;;14.10;80.00;;;;;;5063852;28;20043;-69
2023/09/30 04:58:10;;;;;;;2.85;1.55;;;14.10;80.00;;;;;;5025374;28;20120;-68
2023/09/30 05:00:36;;;;;;;3.95;2.05;;;14.20;80.00;;;;;;5062996;28;20048;-69
2023/09/30 05:03:02;;;;;;;4.40;1.75;;;14.20;80.10;;;;;;5067016;28;20485;-69
2023/09/30 05:05:28;;;;;;;2.58;2.30;;;14.20;80.00;;;;;;5067987;28;20123;-69
2023/09/30 05:07:54;;;;;;;2.58;1.90;;;14.20;80.10;;;;;;5067550;28;20025;-69
2023/09/30 05:10:20;;;;;;;2.75;1.20;;;14.10;80.10;;;;;;5068274;28;20139;-69
2023/09/30 05:12:45;;;;;;;3.22;1.80;;;14.10;80.10;;;;;;5067890;28;20751;-69
2023/09/30 05:15:13;;;;;;;3.60;2.13;;;14.10;80.20;;;;;;5066711;28;20045;-70
2023/09/30 05:17:39;;;;;;;5.25;2.05;;;14.10;80.20;;;;;;5062946;28;20025;-70
2023/09/30 05:20:06;;;;;;;3.13;1.70;;;14.10;80.30;;;;;;5048095;28;20025;-69
2023/09/30 05:22:33;;;;;;;4.22;1.95;;;14.10;80.40;;;;;;5068192;28;20417;-69
2023/09/30 05:25:00;;;;;;;3.83;1.67;;;14.10;80.40;;;;;;5059459;28;20102;-69
2023/09/30 05:27:27;;;;;;;5.85;2.50;;;14.20;80.40;;;;;;5060971;28;20108;-69
2023/09/30 05:29:53;;;;;;;2.53;1.77;;;14.20;80.40;;;;;;5062041;28;20470;-69
2023/09/30 05:32:18;;;;;;;3.45;2.08;;;14.20;80.40;;;;;;5058595;28;20047;-69
2023/09/30 05:34:44;;;;;;;4.03;2.10;;;14.20;81.00;;;;;;5058246;28;20032;-69
2023/09/30 05:37:12;;;;;;;2.75;2.00;;;14.20;80.30;;;;;;5060881;28;20025;-69
2023/09/30 05:39:37;;;;;;;5.18;2.38;;;14.20;80.40;;;;;;5053356;28;20364;-69
2023/09/30 05:42:03;;;;;;;2.92;2.25;;;14.10;80.40;;;;;;5067454;28;20391;-69
2023/09/30 05:44:29;;;;;;;2.80;2.17;;;14.10;80.40;;;;;;5070793;28;20036;-69
2023/09/30 05:46:55;;;;;;;3.67;1.63;;;14.10;80.50;;;;;;5071915;28;20237;-69
2023/09/30 05:49:21;;;;;;;3.33;1.77;;;14.10;80.60;;;;;;5037645;28;20020;-68
2023/09/30 05:51:47;;;;;;;3.30;2.03;;;14.10;80.60;;;;;;5065957;28;20047;-69
2023/09/30 05:54:12;;;;;;;4.28;3.40;;;14.10;80.60;;;;;;5065127;28;20041;-69
2023/09/30 05:56:40;;;;;;;4.72;2.22;;;14.10;80.70;;;;;;5069379;28;20056;-69
2023/09/30 05:59:06;;;;;;;3.97;1.85;;;14.10;80.70;;;;;;5058863;28;20027;-69
2023/09/30 06:01:32;;;;;;;3.17;1.45;;;14.10;80.70;;;;;;5062800;28;20035;-69
2023/09/30 06:03:59;;;;;;;2.58;1.90;;;14.10;80.80;;;;;;5052752;28;20038;-69
2023/09/30 06:06:27;;;;;;;4.50;2.22;;;14.10;80.80;;;;;;5071670;28;20118;-69
2023/09/30 06:08:53;;;;;;;4.50;2.25;;;14.10;80.80;;;;;;5062917;28;20028;-68
2023/09/30 06:11:28;;;;;;;4.82;2.35;;;14.10;80.80;;;;;;5046532;28;20032;-69
2023/09/30 06:13:54;;;;;;;4.80;2.05;;;14.20;80.80;;;;;;5035835;28;20056;-68
2023/09/30 06:16:20;;;;;;;3.28;2.40;;;14.20;80.80;;;;;;5063652;28;20391;-69
2023/09/30 06:18:46;;;;;;;3.38;2.33;;;14.20;80.90;;;;;;5067374;28;20025;-68
2023/09/30 06:21:14;;;;;;;2.78;2.22;;;14.20;80.90;;;;;;5059040;28;20052;-69
2023/09/30 06:23:40;;;;;;;5.18;2.45;;;14.20;80.90;;;;;;5068194;28;20024;-69
2023/09/30 06:26:06;;;;;;;2.95;1.80;;;14.20;81.00;;;;;;5065296;28;20036;-69
2023/09/30 06:28:33;;;;;;;2.13;1.83;;;14.20;81.10;;;;;;5046502;28;20364;-69
2023/09/30 06:30:59;;;;;;;4.03;2.63;;;14.20;81.10;;;;;;5064230;28;20371;-69
2023/09/30 06:33:29;;;;;;;4.18;2.47;;;14.30;81.10;;;;;;5064483;28;20047;-69
2023/09/30 06:35:55;;;;;;;5.13;2.95;;;14.30;81.20;;;;;;5055688;28;20113;-69
2023/09/30 06:38:21;;;;;;;3.53;2.20;;;14.40;81.20;;;;;;5068546;28;20058;-69
2023/09/30 06:40:47;;;;;;;3.90;1.85;;;14.40;81.10;;;;;;5068224;28;20143;-69
2023/09/30 06:43:16;;;;;;;3.05;2.47;;;14.50;81.20;;;;;;5066390;28;20037;-69
2023/09/30 06:45:43;;;;;;;2.72;1.92;;;14.50;81.30;;;;;;5060699;28;20033;-69
2023/09/30 06:48:12;;;;;;;4.63;2.60;;;14.50;81.40;;;;;;5065924;28;20024;-69
2023/09/30 06:50:40;;;;;;;5.03;2.28;;;14.50;81.50;;;;;;5060737;28;20033;-69
2023/09/30 06:53:06;;;;;;;3.15;2.05;;;14.60;81.60;;;;;;5063286;28;20036;-69
2023/09/30 06:55:31;;;;;;;4.72;3.03;;;14.60;81.60;;;;;;5066594;28;20041;-69
2023/09/30 06:57:57;;;;;;;3.65;2.88;;;14.70;81.60;;;;;;5067632;28;20027;-69
2023/09/30 07:00:23;;;;;;;4.03;2.83;;;14.70;81.60;;;;;;5052385;28;20037;-68
2023/09/30 07:02:49;;;;;;;4.63;2.20;;;14.80;81.50;;;;;;5051107;28;20394;-69
2023/09/30 07:05:16;;;;;;;3.38;2.20;;;14.80;81.50;;;;;;5053798;28;20045;-69
2023/09/30 07:07:45;;;;;;;4.32;2.05;;;14.90;81.50;;;;;;5047353;28;20124;-70
2023/09/30 07:10:11;;;;;;;6.35;2.95;;;14.90;81.40;;;;;;5068429;28;20525;-70
2023/09/30 07:12:37;;;;;;;4.05;2.28;;;15.00;81.50;;;;;;5069666;28;20033;-70
2023/09/30 07:15:04;;;;;;;5.82;3.33;;;15.10;81.60;;;;;;5066123;28;20446;-70
2023/09/30 07:17:30;;;;;;;6.93;2.85;;;15.10;82.10;;;;;;5054382;28;20021;-69
2023/09/30 07:19:56;;;;;;;5.55;3.30;;;15.20;82.30;;;;;;5064586;28;20041;-69
2023/09/30 07:22:22;;;;;;;5.93;3.30;;;15.30;82.40;;;;;;5067428;28;20408;-69
2023/09/30 07:24:48;;;;;;;5.32;2.92;;;15.30;82.60;;;;;;5066938;28;20029;-69
2023/09/30 07:27:13;;;;;;;5.10;3.25;;;15.40;83.00;;;;;;5062373;28;20044;-68
2023/09/30 07:29:39;;;;;;;7.07;3.35;;;15.40;83.10;;;;;;5065309;28;20159;-68
2023/09/30 07:32:07;;;;;;;6.07;3.28;;;15.50;83.30;;;;;;5067489;28;20052;-69
2023/09/30 07:34:32;;;;;;;6.95;3.88;;;15.50;83.20;;;;;;5063952;28;20082;-68
2023/09/30 07:36:58;;;;;;;6.40;3.85;;;15.60;83.40;;;;;;5065474;28;20414;-67
2023/09/30 07:39:24;;;;;;;6.85;4.55;;;15.60;83.30;;;;;;5068674;28;20028;-69
2023/09/30 07:41:49;;;;;;;7.75;3.38;;;15.60;83.40;;;;;;5063646;28;20039;-68
2023/09/30 07:44:15;;;;;;;6.88;4.55;;;15.60;83.80;;;;;;5066222;28;20106;-67
2023/09/30 07:46:41;;;;;;;3.72;2.95;;;15.70;84.10;;;;;;5067752;28;20434;-72
2023/09/30 07:49:09;;;;;;;5.97;3.67;;;15.70;84.00;;;;;;5046905;28;20407;-68
2023/09/30 07:51:35;;;;;;;5.90;3.78;;;15.80;83.80;;;;;;5061169;28;20067;-70
2023/09/30 07:54:01;;;;;;;11.10;4.07;;;15.90;83.80;;;;;;5049052;28;20127;-71
2023/09/30 07:56:27;;;;;;;4.95;2.92;;;15.90;83.60;;;;;;5064844;28;20432;-69
2023/09/30 07:58:53;;;;;;;5.45;3.42;;;16.10;83.40;;;;;;5067570;28;20032;-69
2023/09/30 08:01:19;;;;;;;6.07;4.32;;;16.20;83.20;;;;;;5062654;28;20058;-69
2023/09/30 08:03:45;;;;;;;6.30;4.50;;;16.20;83.40;;;;;;5065585;28;20112;-69
2023/09/30 08:06:11;;;;;;;10.60;4.43;;;16.30;83.50;;;;;;5060474;28;20222;-69
2023/09/30 08:08:36;;;;;;;7.70;3.55;;;16.20;83.70;;;;;;5066172;28;20032;-70
2023/09/30 08:11:02;;;;;;;9.10;3.47;;;16.30;83.70;;;;;;5067914;28;20039;-70
2023/09/30 08:13:29;;;;;;;5.90;3.88;;;16.40;83.50;;;;;;5057615;28;20037;-69
2023/09/30 08:15:55;;;;;;;8.45;3.50;;;16.50;83.30;;;;;;5060984;28;20044;-65
2023/09/30 08:18:21;;;;;;;7.15;3.10;;;16.60;83.80;;;;;;5053118;28;20039;-69
2023/09/30 08:20:47;;;;;;;6.72;3.90;;;16.60;83.00;;;;;;5049486;28;20462;-65
2023/09/30 08:23:13;;;;;;;6.82;3.22;;;16.60;82.90;;;;;;5068133;28;20126;-67
2023/09/30 08:25:39;;;;;;;7.60;3.65;;;16.70;82.90;;;;;;5049570;28;20030;-66
2023/09/30 08:28:05;;;;;;;7.75;4.65;;;16.70;82.80;;;;;;5067230;28;20117;-66
2023/09/30 08:30:33;;;;;;;8.77;5.10;;;16.80;82.70;;;;;;5043078;28;20562;-66
2023/09/30 08:32:59;;;;;;;6.30;3.25;;;16.90;82.70;;;;;;5068266;28;20035;-70
2023/09/30 08:35:25;;;;;;;9.45;4.00;;;16.90;82.70;;;;;;5049171;28;20111;-69
2023/09/30 08:37:51;;;;;;;9.15;4.32;;;17.00;82.70;;;;;;5064371;28;20104;-72
2023/09/30 08:40:22;;;;;;;10.25;4.22;;;17.10;82.60;;;;;;5064205;28;20131;-72
2023/09/30 08:42:52;;;;;;;10.98;3.15;;;17.10;82.30;;;;;;5059676;28;20105;-71
2023/09/30 08:45:19;;;;;;;6.18;3.13;;;17.20;82.20;;;;;;5058226;28;20037;-71
2023/09/30 08:47:48;;;;;;;4.43;2.30;;;17.30;82.00;;;;;;5062772;28;20028;-70
2023/09/30 08:50:16;;;;;;;4.32;2.63;;;17.40;81.90;;;;;;5065713;28;20089;-71
2023/09/30 08:52:44;;;;;;;9.18;4.15;;;17.50;81.60;;;;;;5061524;28;20056;-70
2023/09/30 08:55:13;;;;;;;5.80;3.65;;;17.60;81.50;;;;;;5058404;28;20032;-71
2023/09/30 08:57:41;;;;;;;7.38;3.83;;;17.70;81.20;;;;;;5064254;28;20102;-71
2023/09/30 09:00:11;;;;;;;3.90;2.72;;;17.90;81.10;;;;;;5060317;28;20021;-71
2023/09/30 09:02:41;;;;;;;8.38;3.33;;;18.00;80.70;;;;;;5066029;28;20039;-71
2023/09/30 09:05:07;;;;;;;4.05;2.50;;;18.10;80.30;;;;;;5041476;28;20041;-71
2023/09/30 09:07:35;;;;;;;3.38;2.30;;;18.20;80.20;;;;;;5066430;28;20068;-71
2023/09/30 09:10:05;;;;;;;4.80;2.40;;;18.40;80.00;;;;;;5048971;28;20031;-70
2023/09/30 09:12:31;;;;;;;11.95;4.32;;;18.60;79.50;;;;;;5062813;28;20025;-70
2023/09/30 09:14:56;;;;;;;3.38;2.42;;;18.60;78.80;;;;;;5061625;28;20035;-70
2023/09/30 09:17:22;;;;;;;6.45;3.28;;;18.70;78.80;;;;;;5045776;28;20103;-70
2023/09/30 09:20:00;;;;;;;7.50;4.22;;;18.80;78.40;;;;;;5042990;28;20387;-71
2023/09/30 09:22:39;;;;;;;4.28;2.25;;;18.90;78.10;;;;;;5044717;28;20449;-70
2023/09/30 09:25:06;;;;;;;4.75;2.53;;;19.00;78.20;;;;;;5065445;28;20032;-69
2023/09/30 09:27:37;;;;;;;4.45;2.22;;;19.10;77.90;;;;;;5066570;28;20039;-69
2023/09/30 09:30:14;;;;;;;5.67;2.50;;;19.30;77.60;;;;;;5063888;28;20498;-67
2023/09/30 09:32:55;;;;;;;3.90;2.88;;;19.40;77.40;;;;;;5068636;28;20494;-67
2023/09/30 09:35:22;;;;;;;7.20;3.53;;;19.50;76.40;;;;;;5065578;28;20036;-66
2023/09/30 09:37:58;;;;;;;5.78;3.63;;;19.50;75.70;;;;;;5066925;28;20020;-67
2023/09/30 09:40:27;;;;;;;13.02;3.60;;;19.60;75.70;;;;;;5066662;28;20032;-67
2023/09/30 09:42:54;;;;;;;8.05;2.97;;;19.60;75.90;;;;;;5067600;28;20640;-68
2023/09/30 09:45:25;;;;;;;3.65;2.22;;;19.80;75.30;;;;;;5062833;28;20086;-67
2023/09/30 09:47:54;;;;;;;5.05;1.92;;;20.00;75.20;;;;;;5067158;28;20028;-67
2023/09/30 09:50:21;;;;;;;3.85;2.45;;;20.10;75.20;;;;;;5062468;28;20491;-68
2023/09/30 09:52:52;;;;;;;4.88;2.60;;;20.30;74.70;;;;;;5065993;28;20032;-68
2023/09/30 09:55:19;;;;;;;7.22;3.05;;;20.40;73.80;;;;;;5033399;28;20075;-67
2023/09/30 09:57:46;;;;;;;7.50;2.97;;;20.30;73.30;;;;;;5063819;28;20021;-67
2023/09/30 10:00:15;;;;;;;3.40;1.88;;;20.50;73.00;;;;;;5066428;28;20158;-67
2023/09/30 10:02:41;;;;;;;7.57;3.45;;;20.60;73.20;;;;;;5064064;28;20051;-67
2023/09/30 10:05:08;;;;;;;6.60;3.20;;;20.70;72.00;;;;;;5045890;28;20426;-68
2023/09/30 10:07:38;;;;;;;2.65;1.90;;;20.70;72.10;;;;;;5064811;28;20175;-68
2023/09/30 10:10:08;;;;;;;2.47;1.58;;;20.80;72.40;;;;;;5045643;28;20024;-68
2023/09/30 10:12:40;;;;;;;7.07;3.05;;;21.00;72.00;;;;;;5064039;28;20021;-67
2023/09/30 10:15:30;;;;;;;6.90;2.40;;;21.10;70.80;;;;;;5045184;28;20130;-67
2023/09/30 10:17:58;;;;;;;2.30;1.77;;;21.20;70.40;;;;;;5062621;28;20100;-67
2023/09/30 10:20:28;;;;;;;3.85;2.25;;;21.40;70.90;;;;;;5066310;28;20013;-67
2023/09/30 10:23:21;;;;;;;5.47;1.90;;;21.60;70.80;;;;;;5059271;28;20025;-67
2023/09/30 10:25:49;;;;;;;8.52;2.53;;;21.90;70.30;;;;;;5069591;28;20570;-67
2023/09/30 10:28:35;;;;;;;5.57;2.13;;;22.10;69.70;;;;;;5063452;28;20094;-67
2023/09/30 10:31:12;;;;;;;3.97;1.67;;;22.20;68.80;;;;;;5069640;28;20591;-70
2023/09/30 10:36:32;;;;;;;4.75;2.47;;;22.40;68.60;;;;;;5065668;28;20086;-70
2023/09/30 10:38:58;;;;;;;5.47;2.72;;;22.50;67.50;;;;;;5051182;28;20475;-70
2023/09/30 10:41:39;;;;;;;2.30;1.73;;;22.50;65.90;;;;;;5064040;28;20017;-70
2023/09/30 10:44:26;;;;;;;3.83;1.70;;;22.30;66.50;;;;;;5064786;28;20422;-68
2023/09/30 10:46:52;;;;;;;2.75;1.88;;;22.40;67.00;;;;;;5063536;28;20024;-68
2023/09/30 10:49:24;;;;;;;7.45;2.38;;;22.40;65.70;;;;;;5059790;28;20179;-71
2023/09/30 10:51:57;;;;;;;3.97;1.67;;;22.20;65.60;;;;;;5064685;28;20035;-68
2023/09/30 10:54:28;;;;;;;3.53;2.00;;;21.90;66.60;;;;;;5050766;28;20040;-67
2023/09/30 10:56:54;;;;;;;4.38;1.48;;;21.60;66.80;;;;;;5050283;28;20383;-68
2023/09/30 10:59:23;;;;;;;2.72;1.70;;;21.30;67.70;;;;;;5065870;28;20551;-68
2023/09/30 11:01:53;;;;;;;2.50;1.58;;;21.10;68.00;;;;;;5064786;28;20032;-67
2023/09/30 11:04:19;;;;;;;3.35;1.60;;;21.00;68.60;;;;;;5067907;28;20510;-69
2023/09/30 11:06:46;;;;;;;5.25;2.17;;;20.90;69.10;;;;;;5069162;28;20483;-70
2023/09/30 11:09:20;;;;;;;3.50;1.48;;;20.90;69.60;;;;;;5070209;28;20091;-69
2023/09/30 11:11:50;;;;;;;3.63;1.33;;;21.00;70.40;;;;;;5069565;28;20036;-67
2023/09/30 11:14:25;;;;;;;3.75;2.08;;;21.40;69.20;;;;;;5065793;28;20123;-70
2023/09/30 11:16:52;;;;;;;4.10;1.20;;;21.90;68.50;;;;;;5063543;28;20054;-68
2023/09/30 11:19:23;;;;;;;1.52;1.10;;;22.20;66.80;;;;;;5042853;28;20038;-66
2023/09/30 11:21:50;;;;;;;5.25;1.80;;;22.30;66.80;;;;;;5063451;28;20124;-66
2023/09/30 11:24:17;;;;;;;2.50;1.10;;;22.10;65.60;;;;;;5065929;28;20028;-67
2023/09/30 11:26:44;;;;;;;2.13;1.10;;;21.90;66.30;;;;;;5033732;28;20036;-67
2023/09/30 11:29:12;;;;;;;4.10;1.45;;;21.70;65.40;;;;;;5060776;28;20033;-67
2023/09/30 11:31:39;;;;;;;1.92;1.42;;;21.50;65.10;;;;;;5060175;28;20502;-67
2023/09/30 11:34:07;;;;;;;2.45;1.35;;;21.30;66.20;;;;;;5065116;28;20399;-66
2023/09/30 11:36:38;;;;;;;1.25;1.15;;;21.20;66.00;;;;;;5061925;28;20017;-70
2023/09/30 11:39:04;;;;;;;0.80;0.80;;;21.10;65.90;;;;;;5068734;28;20031;-72
2023/09/30 11:41:38;;;;;;;1.95;1.10;;;21.10;66.30;;;;;;5067728;28;20383;-73
2023/09/30 11:44:16;;;;;;;4.68;1.75;;;21.00;65.60;;;;;;5062384;28;20028;-73
2023/09/30 11:46:55;;;;;;;2.13;0.95;;;21.00;66.00;;;;;;5068386;28;20028;-69
2023/09/30 11:49:35;;;;;;;1.65;0.80;;;21.10;66.50;;;;;;5069991;28;20059;-72
2023/09/30 11:52:24;;;;;;;3.83;1.52;;;21.20;66.30;;;;;;5066265;28;20107;-70
2023/09/30 11:54:50;;;;;;;1.90;0.85;;;21.30;66.30;;;;;;5066771;28;20488;-71
2023/09/30 11:57:16;;;;;;;6.75;2.03;;;21.80;65.00;;;;;;5067302;28;20071;-66
2023/09/30 11:59:44;;;;;;;1.65;0.80;;;22.10;63.10;;;;;;5066435;28;20032;-66
2023/09/30 12:02:15;;;;;;;1.73;0.77;;;22.50;61.40;;;;;;5068859;28;20039;-71
2023/09/30 12:04:42;;;;;;;3.00;1.13;;;22.90;59.60;;;;;;5067507;28;20089;-71
2023/09/30 12:07:08;;;;;;;2.80;1.58;;;23.10;58.30;;;;;;5065895;28;20025;-71
2023/09/30 12:09:36;;;;;;;2.00;1.38;;;23.30;59.10;;;;;;5035020;28;20040;-71
2023/09/30 12:12:03;;;;;;;1.80;1.20;;;23.70;57.60;;;;;;5065871;28;20070;-70
2023/09/30 12:14:32;;;;;;;2.45;1.10;;;23.80;57.40;;;;;;5067325;28;20475;-70
2023/09/30 12:16:57;;;;;;;5.60;0.93;;;23.80;57.70;;;;;;5047641;28;20063;-71
2023/09/30 12:19:24;;;;;;;1.73;0.73;;;23.80;56.20;;;;;;5063844;28;20549;-66
2023/09/30 12:21:50;;;;;;;1.05;0.98;;;23.60;56.60;;;;;;5044593;28;20025;-66
2023/09/30 12:24:17;;;;;;;4.90;1.25;;;23.70;56.40;;;;;;5066768;28;20027;-68
2023/09/30 12:26:49;;;;;;;3.35;1.08;;;23.80;56.70;;;;;;5065163;28;20032;-63
2023/09/30 12:29:17;;;;;;;3.25;1.92;;;23.90;57.00;;;;;;5066406;28;20048;-66
2023/09/30 12:31:44;;;;;;;2.40;1.10;;;23.80;55.10;;;;;;5059990;28;20027;-66
2023/09/30 12:34:09;;;;;;;1.52;0.77;;;23.70;56.00;;;;;;5043427;28;20051;-71
2023/09/30 12:36:35;;;;;;;5.45;1.00;;;23.40;56.30;;;;;;5059150;28;20407;-71
2023/09/30 12:39:01;;;;;;;5.45;1.75;;;23.30;56.80;;;;;;5065633;28;20032;-71
2023/09/30 12:41:27;;;;;;;2.03;0.85;;;23.20;56.00;;;;;;5062292;28;20036;-66
2023/09/30 12:43:53;;;;;;;6.57;0.93;;;23.00;56.00;;;;;;5068832;28;20037;-66
2023/09/30 12:46:20;;;;;;;1.23;1.05;;;22.80;56.10;;;;;;5050386;28;20476;-66
2023/09/30 12:48:45;;;;;;;2.63;0.77;;;22.70;56.90;;;;;;5057584;28;20029;-66
2023/09/30 12:51:11;;;;;;;4.07;1.27;;;22.60;57.40;;;;;;5067873;28;20054;-66